sensor_id;sensor_type;location;lat;lon;timestamp;pressure;altitude;pressure_sealevel;temperature;humidity
73918;BME280;63639;52.280;5.162;2023-01-29T00:01:05;103094.32;;;7.88;62.57
73918;BME280;63639;52.280;5.162;2023-01-29T00:03:33;103088.58;;;7.47;63.24
73918;BME280;63639;52.280;5.162;2023-01-29T00:06:03;103081.20;;;7.37;63.61
73918;BME280;63639;52.280;5.162;2023-01-29T00:08:32;103088.64;;;7.19;63.98
73918;BME280;63639;52.280;5.162;2023-01-29T00:11:00;103085.89;;;7.13;64.48
73918;BME280;63639;52.280;5.162;2023-01-29T00:13:26;103084.19;;;7.07;64.86
73918;BME280;63639;52.280;5.162;2023-01-29T00:15:53;103079.48;;;7.28;64.59
73918;BME280;63639;52.280;5.162;2023-01-29T00:18:20;103080.27;;;7.47;63.86
73918;BME280;63639;52.280;5.162;2023-01-29T00:20:47;103082.27;;;7.37;63.82
73918;BME280;63639;52.280;5.162;2023-01-29T00:23:14;103089.02;;;7.21;64.29
73918;BME280;63639;52.280;5.162;2023-01-29T00:25:41;103090.09;;;7.12;64.51
73918;BME280;63639;52.280;5.162;2023-01-29T00:28:09;103091.77;;;7.13;64.91
73918;BME280;63639;52.280;5.162;2023-01-29T00:30:36;103083.56;;;7.56;63.58
73918;BME280;63639;52.280;5.162;2023-01-29T00:33:03;103078.69;;;7.43;63.28
73918;BME280;63639;52.280;5.162;2023-01-29T00:35:31;103077.69;;;7.52;63.62
73918;BME280;63639;52.280;5.162;2023-01-29T00:37:58;103065.63;;;7.61;63.19
73918;BME280;63639;52.280;5.162;2023-01-29T00:40:26;103061.29;;;7.43;63.55
73918;BME280;63639;52.280;5.162;2023-01-29T00:42:52;103066.79;;;7.37;63.60
73918;BME280;63639;52.280;5.162;2023-01-29T00:45:19;103061.34;;;7.33;63.55
73918;BME280;63639;52.280;5.162;2023-01-29T00:47:46;103057.24;;;7.23;64.24
73918;BME280;63639;52.280;5.162;2023-01-29T00:50:13;103055.98;;;7.26;64.11
73918;BME280;63639;52.280;5.162;2023-01-29T00:52:41;103054.82;;;7.35;64.00
73918;BME280;63639;52.280;5.162;2023-01-29T00:55:09;103051.10;;;7.25;64.13
73918;BME280;63639;52.280;5.162;2023-01-29T00:57:36;103049.53;;;7.27;64.32
73918;BME280;63639;52.280;5.162;2023-01-29T01:00:06;103048.40;;;7.53;63.62
73918;BME280;63639;52.280;5.162;2023-01-29T01:02:33;103048.63;;;7.49;63.74
73918;BME280;63639;52.280;5.162;2023-01-29T01:05:00;103043.48;;;7.17;64.36
73918;BME280;63639;52.280;5.162;2023-01-29T01:07:26;103048.25;;;7.29;64.45
73918;BME280;63639;52.280;5.162;2023-01-29T01:09:53;103054.34;;;7.49;64.02
73918;BME280;63639;52.280;5.162;2023-01-29T01:12:20;103054.48;;;7.73;63.14
73918;BME280;63639;52.280;5.162;2023-01-29T01:14:46;103052.00;;;7.71;62.93
73918;BME280;63639;52.280;5.162;2023-01-29T01:17:13;103056.39;;;7.71;62.98
73918;BME280;63639;52.280;5.162;2023-01-29T01:19:40;103059.76;;;7.33;63.85
73918;BME280;63639;52.280;5.162;2023-01-29T01:22:07;103061.30;;;7.43;63.84
73918;BME280;63639;52.280;5.162;2023-01-29T01:24:34;103064.74;;;7.67;63.07
73918;BME280;63639;52.280;5.162;2023-01-29T01:27:01;103067.37;;;7.88;62.08
73918;BME280;63639;52.280;5.162;2023-01-29T01:29:28;103066.30;;;7.58;63.21
73918;BME280;63639;52.280;5.162;2023-01-29T01:31:55;103064.47;;;7.79;62.86
73918;BME280;63639;52.280;5.162;2023-01-29T01:34:22;103065.12;;;7.91;62.15
73918;BME280;63639;52.280;5.162;2023-01-29T01:36:49;103065.33;;;7.72;62.29
73918;BME280;63639;52.280;5.162;2023-01-29T01:39:15;103057.50;;;7.64;62.70
73918;BME280;63639;52.280;5.162;2023-01-29T01:41:42;103055.69;;;7.39;63.33
73918;BME280;63639;52.280;5.162;2023-01-29T01:44:52;103054.77;;;7.58;63.24
73918;BME280;63639;52.280;5.162;2023-01-29T01:47:24;103058.13;;;7.43;63.13
73918;BME280;63639;52.280;5.162;2023-01-29T01:49:53;103059.63;;;7.55;63.39
73918;BME280;63639;52.280;5.162;2023-01-29T01:52:21;103057.74;;;7.60;62.83
73918;BME280;63639;52.280;5.162;2023-01-29T01:54:49;103060.25;;;7.46;63.44
73918;BME280;63639;52.280;5.162;2023-01-29T01:57:19;103061.78;;;7.74;62.99
73918;BME280;63639;52.280;5.162;2023-01-29T01:59:51;103060.26;;;8.00;62.26
73918;BME280;63639;52.280;5.162;2023-01-29T02:02:20;103057.66;;;8.18;61.56
73918;BME280;63639;52.280;5.162;2023-01-29T02:04:47;103064.31;;;8.25;61.04
73918;BME280;63639;52.280;5.162;2023-01-29T02:07:14;103062.43;;;8.07;61.17
73918;BME280;63639;52.280;5.162;2023-01-29T02:09:45;103057.00;;;8.17;61.37
73918;BME280;63639;52.280;5.162;2023-01-29T02:12:15;103060.11;;;8.28;60.95
73918;BME280;63639;52.280;5.162;2023-01-29T02:14:43;103057.49;;;7.97;61.53
73918;BME280;63639;52.280;5.162;2023-01-29T02:17:13;103052.25;;;7.63;62.08
73918;BME280;63639;52.280;5.162;2023-01-29T02:19:46;103050.98;;;7.83;62.32
73918;BME280;63639;52.280;5.162;2023-01-29T02:23:36;103060.32;;;8.04;61.85
73918;BME280;63639;52.280;5.162;2023-01-29T02:26:28;103066.38;;;8.26;60.14
73918;BME280;63639;52.280;5.162;2023-01-29T02:29:08;103071.35;;;8.57;60.17
73918;BME280;63639;52.280;5.162;2023-01-29T02:31:40;103076.27;;;8.56;59.03
73918;BME280;63639;52.280;5.162;2023-01-29T02:34:16;103074.48;;;8.46;59.03
73918;BME280;63639;52.280;5.162;2023-01-29T02:36:50;103078.74;;;8.33;59.57
73918;BME280;63639;52.280;5.162;2023-01-29T02:39:24;103078.29;;;8.22;60.33
73918;BME280;63639;52.280;5.162;2023-01-29T02:41:57;103071.98;;;8.24;59.79
73918;BME280;63639;52.280;5.162;2023-01-29T02:44:30;103071.28;;;7.95;60.60
73918;BME280;63639;52.280;5.162;2023-01-29T02:47:02;103073.31;;;7.91;60.78
73918;BME280;63639;52.280;5.162;2023-01-29T02:49:32;103070.67;;;7.84;61.94
73918;BME280;63639;52.280;5.162;2023-01-29T02:52:08;103069.80;;;8.11;61.25
73918;BME280;63639;52.280;5.162;2023-01-29T02:54:42;103063.18;;;8.15;60.82
73918;BME280;63639;52.280;5.162;2023-01-29T02:57:16;103060.66;;;8.34;60.51
73918;BME280;63639;52.280;5.162;2023-01-29T02:59:49;103061.71;;;8.57;59.95
73918;BME280;63639;52.280;5.162;2023-01-29T03:02:21;103054.85;;;8.49;59.41
73918;BME280;63639;52.280;5.162;2023-01-29T03:04:53;103048.24;;;8.05;61.03
73918;BME280;63639;52.280;5.162;2023-01-29T03:07:24;103043.06;;;8.17;60.65
73918;BME280;63639;52.280;5.162;2023-01-29T03:09:54;103045.15;;;8.17;60.43
73918;BME280;63639;52.280;5.162;2023-01-29T03:12:24;103045.15;;;8.00;61.38
73918;BME280;63639;52.280;5.162;2023-01-29T03:14:51;103045.15;;;8.02;60.91
73918;BME280;63639;52.280;5.162;2023-01-29T03:17:21;103043.02;;;8.09;60.82
73918;BME280;63639;52.280;5.162;2023-01-29T03:19:51;103038.25;;;8.07;61.16
73918;BME280;63639;52.280;5.162;2023-01-29T03:22:19;103036.23;;;7.94;61.52
73918;BME280;63639;52.280;5.162;2023-01-29T03:24:49;103035.59;;;7.50;62.46
73918;BME280;63639;52.280;5.162;2023-01-29T03:27:20;103028.09;;;7.25;63.31
73918;BME280;63639;52.280;5.162;2023-01-29T03:29:49;103023.51;;;7.17;63.99
73918;BME280;63639;52.280;5.162;2023-01-29T03:32:18;103019.28;;;7.15;63.75
73918;BME280;63639;52.280;5.162;2023-01-29T03:34:49;103013.92;;;7.12;64.67
73918;BME280;63639;52.280;5.162;2023-01-29T03:37:20;103012.42;;;6.90;64.77
73918;BME280;63639;52.280;5.162;2023-01-29T03:39:51;103009.15;;;7.30;64.01
73918;BME280;63639;52.280;5.162;2023-01-29T03:42:24;103010.38;;;7.32;63.45
73918;BME280;63639;52.280;5.162;2023-01-29T03:44:59;103012.75;;;7.31;63.43
73918;BME280;63639;52.280;5.162;2023-01-29T03:47:37;103003.95;;;7.29;63.81
73918;BME280;63639;52.280;5.162;2023-01-29T03:50:16;102999.53;;;7.15;64.14
73918;BME280;63639;52.280;5.162;2023-01-29T03:52:49;103005.19;;;6.99;64.62
73918;BME280;63639;52.280;5.162;2023-01-29T03:55:20;102994.28;;;7.20;64.23
73918;BME280;63639;52.280;5.162;2023-01-29T03:57:53;102992.58;;;6.98;64.46
73918;BME280;63639;52.280;5.162;2023-01-29T04:00:25;102996.72;;;6.84;64.93
73918;BME280;63639;52.280;5.162;2023-01-29T04:02:59;102998.55;;;7.13;64.35
73918;BME280;63639;52.280;5.162;2023-01-29T04:05:32;103001.50;;;7.43;63.55
73918;BME280;63639;52.280;5.162;2023-01-29T04:08:11;102992.87;;;7.61;62.96
73918;BME280;63639;52.280;5.162;2023-01-29T04:10:40;102991.45;;;7.59;62.56
73918;BME280;63639;52.280;5.162;2023-01-29T04:13:10;102987.36;;;7.46;63.05
73918;BME280;63639;52.280;5.162;2023-01-29T04:15:42;102986.87;;;7.38;63.30
73918;BME280;63639;52.280;5.162;2023-01-29T04:18:11;102986.30;;;7.32;63.27
73918;BME280;63639;52.280;5.162;2023-01-29T04:20:37;102984.83;;;6.83;64.60
73918;BME280;63639;52.280;5.162;2023-01-29T04:23:06;102983.94;;;6.87;64.97
73918;BME280;63639;52.280;5.162;2023-01-29T04:25:49;102981.57;;;7.16;63.98
73918;BME280;63639;52.280;5.162;2023-01-29T04:28:22;102979.41;;;6.91;64.83
73918;BME280;63639;52.280;5.162;2023-01-29T04:30:53;102972.45;;;6.80;65.47
73918;BME280;63639;52.280;5.162;2023-01-29T04:33:30;102968.40;;;6.87;65.26
73918;BME280;63639;52.280;5.162;2023-01-29T04:36:10;102968.37;;;7.07;64.65
73918;BME280;63639;52.280;5.162;2023-01-29T04:38:49;102964.99;;;6.97;64.86
73918;BME280;63639;52.280;5.162;2023-01-29T04:41:23;102964.32;;;6.97;65.08
73918;BME280;63639;52.280;5.162;2023-01-29T04:43:59;102965.16;;;6.76;65.59
73918;BME280;63639;52.280;5.162;2023-01-29T04:46:32;102959.55;;;6.77;65.53
73918;BME280;63639;52.280;5.162;2023-01-29T04:49:13;102955.72;;;6.83;65.78
73918;BME280;63639;52.280;5.162;2023-01-29T04:51:48;102947.80;;;6.65;66.14
73918;BME280;63639;52.280;5.162;2023-01-29T04:54:24;102946.19;;;6.79;65.57
73918;BME280;63639;52.280;5.162;2023-01-29T04:57:04;102941.61;;;6.93;66.06
73918;BME280;63639;52.280;5.162;2023-01-29T04:59:35;102940.37;;;7.06;64.87
73918;BME280;63639;52.280;5.162;2023-01-29T05:02:07;102941.22;;;6.91;65.08
73918;BME280;63639;52.280;5.162;2023-01-29T05:04:37;102938.69;;;6.97;64.71
73918;BME280;63639;52.280;5.162;2023-01-29T05:07:07;102938.21;;;7.05;64.53
73918;BME280;63639;52.280;5.162;2023-01-29T05:09:36;102937.05;;;6.89;64.95
73918;BME280;63639;52.280;5.162;2023-01-29T05:12:06;102942.43;;;6.90;65.08
73918;BME280;63639;52.280;5.162;2023-01-29T05:14:36;102943.93;;;7.04;64.84
73918;BME280;63639;52.280;5.162;2023-01-29T05:17:09;102945.19;;;7.20;64.37
73918;BME280;63639;52.280;5.162;2023-01-29T05:19:39;102950.57;;;6.64;65.41
73918;BME280;63639;52.280;5.162;2023-01-29T05:22:08;102948.12;;;6.66;65.79
73918;BME280;63639;52.280;5.162;2023-01-29T05:24:37;102946.91;;;6.72;65.72
73918;BME280;63639;52.280;5.162;2023-01-29T05:27:04;102945.31;;;6.78;65.23
73918;BME280;63639;52.280;5.162;2023-01-29T05:29:31;102938.28;;;6.75;65.82
73918;BME280;63639;52.280;5.162;2023-01-29T05:31:57;102936.49;;;6.98;64.86
73918;BME280;63639;52.280;5.162;2023-01-29T05:34:24;102937.50;;;7.06;64.32
73918;BME280;63639;52.280;5.162;2023-01-29T05:36:52;102940.69;;;7.23;63.89
73918;BME280;63639;52.280;5.162;2023-01-29T05:39:19;102949.15;;;7.13;64.01
73918;BME280;63639;52.280;5.162;2023-01-29T05:41:46;102949.57;;;6.92;64.50
73918;BME280;63639;52.280;5.162;2023-01-29T05:44:13;102944.44;;;7.18;63.37
73918;BME280;63639;52.280;5.162;2023-01-29T05:46:40;102945.14;;;6.96;64.37
73918;BME280;63639;52.280;5.162;2023-01-29T05:49:07;102945.93;;;6.81;64.53
73918;BME280;63639;52.280;5.162;2023-01-29T05:51:39;102937.03;;;6.63;65.69
73918;BME280;63639;52.280;5.162;2023-01-29T05:54:06;102931.86;;;6.80;65.08
73918;BME280;63639;52.280;5.162;2023-01-29T05:56:33;102928.75;;;7.04;64.46
73918;BME280;63639;52.280;5.162;2023-01-29T05:59:00;102918.01;;;7.08;63.93
73918;BME280;63639;52.280;5.162;2023-01-29T06:01:27;102919.54;;;7.00;64.28
73918;BME280;63639;52.280;5.162;2023-01-29T06:03:54;102913.84;;;6.79;64.66
73918;BME280;63639;52.280;5.162;2023-01-29T06:06:21;102903.66;;;6.45;65.89
73918;BME280;63639;52.280;5.162;2023-01-29T06:08:48;102903.48;;;6.52;65.99
73918;BME280;63639;52.280;5.162;2023-01-29T06:11:15;102904.33;;;6.55;65.84
73918;BME280;63639;52.280;5.162;2023-01-29T06:13:43;102903.49;;;6.53;65.89
73918;BME280;63639;52.280;5.162;2023-01-29T06:16:11;102899.24;;;6.81;65.32
73918;BME280;63639;52.280;5.162;2023-01-29T06:18:39;102896.97;;;7.02;64.32
73918;BME280;63639;52.280;5.162;2023-01-29T06:21:09;102895.19;;;6.92;64.91
73918;BME280;63639;52.280;5.162;2023-01-29T06:23:36;102888.80;;;6.86;64.95
73918;BME280;63639;52.280;5.162;2023-01-29T06:26:05;102890.87;;;6.93;65.11
73918;BME280;63639;52.280;5.162;2023-01-29T06:28:33;102889.98;;;6.97;64.96
73918;BME280;63639;52.280;5.162;2023-01-29T06:31:02;102887.07;;;6.39;66.81
73918;BME280;63639;52.280;5.162;2023-01-29T06:33:30;102886.52;;;6.70;66.23
73918;BME280;63639;52.280;5.162;2023-01-29T06:35:58;102886.25;;;6.61;66.60
73918;BME280;63639;52.280;5.162;2023-01-29T06:38:25;102889.64;;;6.89;65.44
73918;BME280;63639;52.280;5.162;2023-01-29T06:40:53;102893.98;;;6.94;65.06
73918;BME280;63639;52.280;5.162;2023-01-29T06:43:21;102895.08;;;6.76;65.51
73918;BME280;63639;52.280;5.162;2023-01-29T06:45:49;102895.99;;;6.56;65.84
73918;BME280;63639;52.280;5.162;2023-01-29T06:48:16;102898.37;;;6.70;65.95
73918;BME280;63639;52.280;5.162;2023-01-29T06:50:44;102895.29;;;6.57;65.81
73918;BME280;63639;52.280;5.162;2023-01-29T06:53:11;102886.72;;;6.90;65.32
73918;BME280;63639;52.280;5.162;2023-01-29T06:55:38;102881.99;;;6.61;65.56
73918;BME280;63639;52.280;5.162;2023-01-29T06:58:05;102879.61;;;6.48;66.22
73918;BME280;63639;52.280;5.162;2023-01-29T07:00:32;102875.80;;;6.35;66.91
73918;BME280;63639;52.280;5.162;2023-01-29T07:02:59;102869.29;;;6.58;66.14
73918;BME280;63639;52.280;5.162;2023-01-29T07:05:26;102870.54;;;6.55;65.89
73918;BME280;63639;52.280;5.162;2023-01-29T07:07:53;102874.63;;;6.25;66.55
73918;BME280;63639;52.280;5.162;2023-01-29T07:10:20;102880.85;;;6.21;66.55
73918;BME280;63639;52.280;5.162;2023-01-29T07:12:47;102885.29;;;5.94;67.73
73918;BME280;63639;52.280;5.162;2023-01-29T07:15:14;102884.26;;;6.34;66.86
73918;BME280;63639;52.280;5.162;2023-01-29T07:17:41;102886.45;;;6.39;66.21
73918;BME280;63639;52.280;5.162;2023-01-29T07:20:09;102884.93;;;6.70;65.60
73918;BME280;63639;52.280;5.162;2023-01-29T07:22:36;102884.03;;;6.67;65.38
73918;BME280;63639;52.280;5.162;2023-01-29T07:25:04;102888.16;;;6.69;64.83
73918;BME280;63639;52.280;5.162;2023-01-29T07:27:33;102887.18;;;6.49;65.55
73918;BME280;63639;52.280;5.162;2023-01-29T07:30:00;102889.63;;;6.50;65.82
73918;BME280;63639;52.280;5.162;2023-01-29T07:32:27;102888.09;;;6.54;65.50
73918;BME280;63639;52.280;5.162;2023-01-29T07:34:54;102883.81;;;6.43;65.85
73918;BME280;63639;52.280;5.162;2023-01-29T07:37:21;102884.32;;;6.24;66.64
73918;BME280;63639;52.280;5.162;2023-01-29T07:39:47;102876.71;;;6.36;66.15
73918;BME280;63639;52.280;5.162;2023-01-29T07:42:14;102877.46;;;6.19;66.60
73918;BME280;63639;52.280;5.162;2023-01-29T07:44:41;102871.10;;;6.10;67.19
73918;BME280;63639;52.280;5.162;2023-01-29T07:47:07;102866.45;;;6.42;66.16
73918;BME280;63639;52.280;5.162;2023-01-29T07:49:34;102857.89;;;6.37;66.26
73918;BME280;63639;52.280;5.162;2023-01-29T07:52:01;102851.15;;;6.35;66.23
73918;BME280;63639;52.280;5.162;2023-01-29T07:54:29;102850.10;;;6.36;66.65
73918;BME280;63639;52.280;5.162;2023-01-29T07:56:56;102854.14;;;6.36;66.25
73918;BME280;63639;52.280;5.162;2023-01-29T07:59:23;102843.77;;;5.94;67.49
73918;BME280;63639;52.280;5.162;2023-01-29T08:01:50;102840.82;;;6.30;66.91
73918;BME280;63639;52.280;5.162;2023-01-29T08:04:17;102840.81;;;6.62;65.64
73918;BME280;63639;52.280;5.162;2023-01-29T08:06:43;102848.16;;;6.16;66.72
73918;BME280;63639;52.280;5.162;2023-01-29T08:09:10;102845.29;;;5.97;67.34
73918;BME280;63639;52.280;5.162;2023-01-29T08:11:37;102846.89;;;6.35;66.42
73918;BME280;63639;52.280;5.162;2023-01-29T08:14:04;102850.59;;;6.22;67.06
73918;BME280;63639;52.280;5.162;2023-01-29T08:16:31;102849.32;;;6.31;66.13
73918;BME280;63639;52.280;5.162;2023-01-29T08:18:58;102851.80;;;6.33;66.15
73918;BME280;63639;52.280;5.162;2023-01-29T08:21:24;102853.64;;;6.43;65.93
73918;BME280;63639;52.280;5.162;2023-01-29T08:23:51;102848.79;;;6.51;65.76
73918;BME280;63639;52.280;5.162;2023-01-29T08:26:17;102844.20;;;6.05;66.76
73918;BME280;63639;52.280;5.162;2023-01-29T08:28:44;102839.61;;;6.06;67.05
73918;BME280;63639;52.280;5.162;2023-01-29T08:31:13;102839.55;;;6.28;66.45
73918;BME280;63639;52.280;5.162;2023-01-29T08:33:40;102837.57;;;6.61;65.45
73918;BME280;63639;52.280;5.162;2023-01-29T08:36:08;102826.78;;;6.81;64.78
73918;BME280;63639;52.280;5.162;2023-01-29T08:38:35;102829.75;;;6.65;65.39
73918;BME280;63639;52.280;5.162;2023-01-29T08:41:02;102830.15;;;6.19;66.40
73918;BME280;63639;52.280;5.162;2023-01-29T08:43:29;102828.44;;;6.71;66.36
73918;BME280;63639;52.280;5.162;2023-01-29T08:45:56;102830.53;;;7.02;64.43
73918;BME280;63639;52.280;5.162;2023-01-29T08:48:23;102826.33;;;6.70;65.11
73918;BME280;63639;52.280;5.162;2023-01-29T08:50:50;102825.38;;;6.76;64.71
73918;BME280;63639;52.280;5.162;2023-01-29T08:53:17;102820.44;;;6.50;65.52
73918;BME280;63639;52.280;5.162;2023-01-29T08:55:45;102818.66;;;6.44;65.74
73918;BME280;63639;52.280;5.162;2023-01-29T08:58:12;102817.16;;;6.44;66.19
73918;BME280;63639;52.280;5.162;2023-01-29T09:00:39;102810.98;;;6.92;65.06
73918;BME280;63639;52.280;5.162;2023-01-29T09:03:06;102808.54;;;6.65;65.37
73918;BME280;63639;52.280;5.162;2023-01-29T09:05:33;102808.89;;;6.72;65.34
73918;BME280;63639;52.280;5.162;2023-01-29T09:08:01;102810.99;;;6.43;65.73
73918;BME280;63639;52.280;5.162;2023-01-29T09:10:28;102808.98;;;6.23;66.87
73918;BME280;63639;52.280;5.162;2023-01-29T09:12:54;102805.60;;;6.43;66.24
73918;BME280;63639;52.280;5.162;2023-01-29T09:15:21;102807.16;;;6.11;67.17
73918;BME280;63639;52.280;5.162;2023-01-29T09:17:48;102811.54;;;6.30;66.71
73918;BME280;63639;52.280;5.162;2023-01-29T09:20:15;102816.48;;;6.19;67.07
73918;BME280;63639;52.280;5.162;2023-01-29T09:22:43;102810.60;;;6.46;66.67
73918;BME280;63639;52.280;5.162;2023-01-29T09:25:10;102818.13;;;6.62;65.89
73918;BME280;63639;52.280;5.162;2023-01-29T09:27:37;102819.13;;;5.84;68.26
73918;BME280;63639;52.280;5.162;2023-01-29T09:30:05;102818.47;;;6.27;66.92
73918;BME280;63639;52.280;5.162;2023-01-29T09:32:33;102813.02;;;6.48;66.21
73918;BME280;63639;52.280;5.162;2023-01-29T09:35:00;102816.19;;;6.46;66.13
73918;BME280;63639;52.280;5.162;2023-01-29T09:37:27;102820.06;;;6.59;66.31
73918;BME280;63639;52.280;5.162;2023-01-29T09:39:53;102816.70;;;6.69;65.94
73918;BME280;63639;52.280;5.162;2023-01-29T09:42:23;102816.11;;;6.78;65.24
73918;BME280;63639;52.280;5.162;2023-01-29T09:44:58;102810.96;;;6.77;65.23
73918;BME280;63639;52.280;5.162;2023-01-29T09:47:31;102808.73;;;7.04;64.66
73918;BME280;63639;52.280;5.162;2023-01-29T09:50:01;102812.46;;;7.02;64.54
73918;BME280;63639;52.280;5.162;2023-01-29T09:52:30;102814.09;;;6.89;64.30
73918;BME280;63639;52.280;5.162;2023-01-29T09:55:02;102810.94;;;6.92;64.68
73918;BME280;63639;52.280;5.162;2023-01-29T09:57:36;102813.29;;;6.61;65.41
73918;BME280;63639;52.280;5.162;2023-01-29T10:00:08;102806.99;;;6.11;67.31
73918;BME280;63639;52.280;5.162;2023-01-29T10:02:51;102805.10;;;6.35;67.01
73918;BME280;63639;52.280;5.162;2023-01-29T10:05:29;102803.53;;;6.49;66.41
73918;BME280;63639;52.280;5.162;2023-01-29T10:08:14;102804.36;;;6.55;66.45
73918;BME280;63639;52.280;5.162;2023-01-29T10:10:48;102802.50;;;6.35;67.25
73918;BME280;63639;52.280;5.162;2023-01-29T10:13:23;102795.17;;;6.18;67.46
73918;BME280;63639;52.280;5.162;2023-01-29T10:16:05;102785.17;;;6.25;68.02
73918;BME280;63639;52.280;5.162;2023-01-29T10:18:58;102781.72;;;6.67;66.65
73918;BME280;63639;52.280;5.162;2023-01-29T10:21:41;102781.41;;;6.53;66.45
73918;BME280;63639;52.280;5.162;2023-01-29T10:24:21;102775.58;;;6.16;67.83
73918;BME280;63639;52.280;5.162;2023-01-29T10:26:51;102772.49;;;6.45;66.87
73918;BME280;63639;52.280;5.162;2023-01-29T10:29:19;102774.47;;;6.40;67.01
73918;BME280;63639;52.280;5.162;2023-01-29T10:31:49;102773.86;;;6.39;67.72
73918;BME280;63639;52.280;5.162;2023-01-29T10:34:23;102772.35;;;6.76;66.69
73918;BME280;63639;52.280;5.162;2023-01-29T10:36:53;102766.10;;;6.51;67.14
73918;BME280;63639;52.280;5.162;2023-01-29T10:39:21;102763.25;;;6.39;67.80
73918;BME280;63639;52.280;5.162;2023-01-29T10:41:59;102761.93;;;6.44;67.32
73918;BME280;63639;52.280;5.162;2023-01-29T10:44:37;102757.02;;;6.19;68.46
73918;BME280;63639;52.280;5.162;2023-01-29T10:47:24;102752.91;;;6.63;67.25
73918;BME280;63639;52.280;5.162;2023-01-29T10:50:07;102749.50;;;6.75;67.00
73918;BME280;63639;52.280;5.162;2023-01-29T10:52:47;102743.54;;;6.78;66.55
73918;BME280;63639;52.280;5.162;2023-01-29T10:55:26;102745.58;;;6.52;67.29
73918;BME280;63639;52.280;5.162;2023-01-29T10:58:05;102748.31;;;6.24;68.39
73918;BME280;63639;52.280;5.162;2023-01-29T11:00:38;102743.24;;;6.35;69.00
73918;BME280;63639;52.280;5.162;2023-01-29T11:03:14;102736.92;;;6.40;68.20
73918;BME280;63639;52.280;5.162;2023-01-29T11:05:46;102723.45;;;6.62;67.83
73918;BME280;63639;52.280;5.162;2023-01-29T11:08:18;102729.08;;;6.67;67.64
73918;BME280;63639;52.280;5.162;2023-01-29T11:10:53;102723.17;;;6.90;66.89
73918;BME280;63639;52.280;5.162;2023-01-29T11:13:21;102724.16;;;6.29;68.64
73918;BME280;63639;52.280;5.162;2023-01-29T11:15:52;102728.02;;;6.52;68.47
73918;BME280;63639;52.280;5.162;2023-01-29T11:18:18;102727.08;;;6.52;68.52
73918;BME280;63639;52.280;5.162;2023-01-29T11:20:59;102726.54;;;6.72;67.71
73918;BME280;63639;52.280;5.162;2023-01-29T11:23:28;102725.15;;;6.36;68.91
73918;BME280;63639;52.280;5.162;2023-01-29T11:25:57;102718.19;;;6.36;68.96
73918;BME280;63639;52.280;5.162;2023-01-29T11:28:41;102714.35;;;6.46;69.01
73918;BME280;63639;52.280;5.162;2023-01-29T11:31:18;102711.09;;;6.56;68.94
73918;BME280;63639;52.280;5.162;2023-01-29T11:33:47;102708.63;;;6.58;68.42
73918;BME280;63639;52.280;5.162;2023-01-29T11:36:21;102705.22;;;6.70;68.32
73918;BME280;63639;52.280;5.162;2023-01-29T11:39:10;102700.21;;;6.74;68.05
73918;BME280;63639;52.280;5.162;2023-01-29T11:41:43;102696.08;;;6.85;67.91
73918;BME280;63639;52.280;5.162;2023-01-29T11:44:20;102694.94;;;6.56;68.79
73918;BME280;63639;52.280;5.162;2023-01-29T11:46:47;102684.21;;;6.63;68.82
73918;BME280;63639;52.280;5.162;2023-01-29T11:49:23;102680.92;;;6.54;68.71
73918;BME280;63639;52.280;5.162;2023-01-29T11:51:54;102678.01;;;6.29;69.67
73918;BME280;63639;52.280;5.162;2023-01-29T11:54:25;102671.87;;;6.83;68.63
73918;BME280;63639;52.280;5.162;2023-01-29T11:56:54;102668.98;;;6.49;69.47
73918;BME280;63639;52.280;5.162;2023-01-29T11:59:30;102662.78;;;6.95;68.19
73918;BME280;63639;52.280;5.162;2023-01-29T12:02:05;102660.60;;;6.89;67.62
73918;BME280;63639;52.280;5.162;2023-01-29T12:04:37;102660.51;;;6.80;68.56
73918;BME280;63639;52.280;5.162;2023-01-29T12:07:10;102653.63;;;7.03;68.27
73918;BME280;63639;52.280;5.162;2023-01-29T12:09:38;102649.58;;;7.09;67.90
73918;BME280;63639;52.280;5.162;2023-01-29T12:12:17;102644.88;;;6.87;68.19
73918;BME280;63639;52.280;5.162;2023-01-29T12:14:44;102642.43;;;7.01;67.67
73918;BME280;63639;52.280;5.162;2023-01-29T12:17:16;102636.80;;;6.72;68.59
73918;BME280;63639;52.280;5.162;2023-01-29T12:19:48;102637.04;;;6.50;69.68
73918;BME280;63639;52.280;5.162;2023-01-29T12:22:21;102629.50;;;6.52;70.21
73918;BME280;63639;52.280;5.162;2023-01-29T12:24:55;102619.99;;;6.58;69.74
73918;BME280;63639;52.280;5.162;2023-01-29T12:27:26;102623.76;;;6.78;69.18
73918;BME280;63639;52.280;5.162;2023-01-29T12:30:02;102616.46;;;6.47;70.28
73918;BME280;63639;52.280;5.162;2023-01-29T12:32:36;102609.04;;;6.11;71.88
73918;BME280;63639;52.280;5.162;2023-01-29T12:35:13;102605.54;;;6.17;71.69
73918;BME280;63639;52.280;5.162;2023-01-29T12:37:48;102598.38;;;6.37;71.16
73918;BME280;63639;52.280;5.162;2023-01-29T12:40:28;102595.45;;;6.76;70.31
73918;BME280;63639;52.280;5.162;2023-01-29T12:43:01;102590.96;;;6.85;69.69
73918;BME280;63639;52.280;5.162;2023-01-29T12:45:31;102577.29;;;6.65;70.45
73918;BME280;63639;52.280;5.162;2023-01-29T12:48:01;102569.21;;;7.13;69.56
73918;BME280;63639;52.280;5.162;2023-01-29T12:50:33;102562.19;;;7.52;68.10
73918;BME280;63639;52.280;5.162;2023-01-29T12:53:05;102551.57;;;6.99;69.09
73918;BME280;63639;52.280;5.162;2023-01-29T12:55:38;102539.92;;;6.82;69.90
73918;BME280;63639;52.280;5.162;2023-01-29T12:58:11;102528.06;;;6.59;71.23
73918;BME280;63639;52.280;5.162;2023-01-29T13:00:45;102523.34;;;6.65;71.04
73918;BME280;63639;52.280;5.162;2023-01-29T13:03:20;102510.86;;;6.52;71.47
73918;BME280;63639;52.280;5.162;2023-01-29T13:05:50;102504.39;;;6.97;70.96
73918;BME280;63639;52.280;5.162;2023-01-29T13:08:21;102499.85;;;7.21;69.26
73918;BME280;63639;52.280;5.162;2023-01-29T13:10:52;102489.18;;;7.36;69.36
73918;BME280;63639;52.280;5.162;2023-01-29T13:13:25;102489.43;;;7.15;69.29
73918;BME280;63639;52.280;5.162;2023-01-29T13:15:54;102485.90;;;7.05;69.87
73918;BME280;63639;52.280;5.162;2023-01-29T13:18:34;102482.63;;;6.82;70.78